sensor_id;sensor_type;location;lat;lon;timestamp;P1;durP1;ratioP1;P2;durP2;ratioP2
31760;SDS011;18335;51.486;7.562;2023-10-31T00:00:40;2.65;;;1.10;;
31760;SDS011;18335;51.486;7.562;2023-10-31T00:03:06;3.80;;;1.27;;
31760;SDS011;18335;51.486;7.562;2023-10-31T00:05:33;2.03;;;0.95;;
31760;SDS011;18335;51.486;7.562;2023-10-31T00:08:00;1.20;;;0.75;;
31760;SDS011;18335;51.486;7.562;2023-10-31T00:10:27;4.07;;;1.58;;
31760;SDS011;18335;51.486;7.562;2023-10-31T00:12:56;2.30;;;1.00;;
31760;SDS011;18335;51.486;7.562;2023-10-31T00:15:22;3.67;;;1.13;;
31760;SDS011;18335;51.486;7.562;2023-10-31T00:17:50;4.43;;;1.50;;
31760;SDS011;18335;51.486;7.562;2023-10-31T00:20:16;4.05;;;1.70;;
31760;SDS011;18335;51.486;7.562;2023-10-31T00:22:43;2.70;;;1.75;;
31760;SDS011;18335;51.486;7.562;2023-10-31T00:25:10;3.45;;;2.10;;
31760;SDS011;18335;51.486;7.562;2023-10-31T00:27:36;3.60;;;1.90;;
31760;SDS011;18335;51.486;7.562;2023-10-31T00:30:06;5.18;;;2.50;;
31760;SDS011;18335;51.486;7.562;2023-10-31T00:32:33;3.17;;;2.00;;
31760;SDS011;18335;51.486;7.562;2023-10-31T00:35:00;4.40;;;2.25;;
31760;SDS011;18335;51.486;7.562;2023-10-31T00:37:27;3.85;;;2.05;;
31760;SDS011;18335;51.486;7.562;2023-10-31T00:39:53;4.53;;;2.20;;
31760;SDS011;18335;51.486;7.562;2023-10-31T00:42:20;3.92;;;2.10;;
31760;SDS011;18335;51.486;7.562;2023-10-31T00:44:47;3.42;;;1.90;;
31760;SDS011;18335;51.486;7.562;2023-10-31T00:47:15;3.75;;;2.17;;
31760;SDS011;18335;51.486;7.562;2023-10-31T00:49:43;4.72;;;2.67;;
31760;SDS011;18335;51.486;7.562;2023-10-31T00:52:09;2.90;;;1.95;;
31760;SDS011;18335;51.486;7.562;2023-10-31T00:54:36;6.43;;;3.13;;
31760;SDS011;18335;51.486;7.562;2023-10-31T00:57:03;4.03;;;2.50;;
31760;SDS011;18335;51.486;7.562;2023-10-31T00:59:30;4.15;;;1.77;;
31760;SDS011;18335;51.486;7.562;2023-10-31T01:01:56;4.40;;;2.10;;
31760;SDS011;18335;51.486;7.562;2023-10-31T01:04:24;4.25;;;2.50;;
31760;SDS011;18335;51.486;7.562;2023-10-31T01:06:51;4.05;;;2.60;;
31760;SDS011;18335;51.486;7.562;2023-10-31T01:09:18;2.78;;;1.95;;
31760;SDS011;18335;51.486;7.562;2023-10-31T01:11:44;5.72;;;2.17;;
31760;SDS011;18335;51.486;7.562;2023-10-31T01:14:12;3.20;;;1.80;;
31760;SDS011;18335;51.486;7.562;2023-10-31T01:16:39;3.28;;;1.73;;
31760;SDS011;18335;51.486;7.562;2023-10-31T01:19:06;2.80;;;1.40;;
31760;SDS011;18335;51.486;7.562;2023-10-31T01:21:35;2.35;;;1.35;;
31760;SDS011;18335;51.486;7.562;2023-10-31T01:24:01;3.38;;;1.70;;
31760;SDS011;18335;51.486;7.562;2023-10-31T01:26:28;3.47;;;1.40;;
31760;SDS011;18335;51.486;7.562;2023-10-31T01:28:55;3.45;;;1.52;;
31760;SDS011;18335;51.486;7.562;2023-10-31T01:31:22;1.70;;;1.40;;
31760;SDS011;18335;51.486;7.562;2023-10-31T01:33:48;2.17;;;1.20;;
31760;SDS011;18335;51.486;7.562;2023-10-31T01:36:15;2.88;;;1.60;;
31760;SDS011;18335;51.486;7.562;2023-10-31T01:38:44;2.13;;;0.90;;
31760;SDS011;18335;51.486;7.562;2023-10-31T01:41:11;2.05;;;1.05;;
31760;SDS011;18335;51.486;7.562;2023-10-31T01:43:38;2.17;;;0.90;;
31760;SDS011;18335;51.486;7.562;2023-10-31T01:46:05;1.23;;;0.80;;
31760;SDS011;18335;51.486;7.562;2023-10-31T01:48:32;2.65;;;1.05;;
31760;SDS011;18335;51.486;7.562;2023-10-31T01:50:59;2.63;;;1.00;;
31760;SDS011;18335;51.486;7.562;2023-10-31T01:53:29;3.63;;;1.35;;
31760;SDS011;18335;51.486;7.562;2023-10-31T01:55:59;3.33;;;1.40;;
31760;SDS011;18335;51.486;7.562;2023-10-31T01:58:28;2.55;;;1.20;;
31760;SDS011;18335;51.486;7.562;2023-10-31T02:00:57;3.13;;;1.55;;
31760;SDS011;18335;51.486;7.562;2023-10-31T02:03:23;3.58;;;1.73;;
31760;SDS011;18335;51.486;7.562;2023-10-31T02:05:50;3.40;;;1.58;;
31760;SDS011;18335;51.486;7.562;2023-10-31T02:08:18;3.85;;;1.88;;
31760;SDS011;18335;51.486;7.562;2023-10-31T02:10:45;7.25;;;2.28;;
31760;SDS011;18335;51.486;7.562;2023-10-31T02:13:13;4.03;;;2.10;;
31760;SDS011;18335;51.486;7.562;2023-10-31T02:15:41;5.18;;;2.50;;
31760;SDS011;18335;51.486;7.562;2023-10-31T02:18:08;6.90;;;3.88;;
31760;SDS011;18335;51.486;7.562;2023-10-31T02:20:37;5.38;;;2.50;;
31760;SDS011;18335;51.486;7.562;2023-10-31T02:23:05;6.53;;;2.60;;
31760;SDS011;18335;51.486;7.562;2023-10-31T02:25:32;5.50;;;2.30;;
31760;SDS011;18335;51.486;7.562;2023-10-31T02:27:59;6.13;;;2.90;;
31760;SDS011;18335;51.486;7.562;2023-10-31T02:30:26;8.45;;;2.92;;
31760;SDS011;18335;51.486;7.562;2023-10-31T02:32:53;5.10;;;2.45;;
31760;SDS011;18335;51.486;7.562;2023-10-31T02:35:20;7.00;;;3.28;;
31760;SDS011;18335;51.486;7.562;2023-10-31T02:37:47;6.95;;;2.80;;
31760;SDS011;18335;51.486;7.562;2023-10-31T02:40:15;4.40;;;2.90;;
31760;SDS011;18335;51.486;7.562;2023-10-31T02:42:42;4.32;;;2.30;;
31760;SDS011;18335;51.486;7.562;2023-10-31T02:45:10;4.75;;;2.40;;
31760;SDS011;18335;51.486;7.562;2023-10-31T02:47:37;3.63;;;2.00;;
31760;SDS011;18335;51.486;7.562;2023-10-31T02:50:04;4.50;;;2.10;;
31760;SDS011;18335;51.486;7.562;2023-10-31T02:52:31;4.40;;;2.35;;
31760;SDS011;18335;51.486;7.562;2023-10-31T02:54:59;4.65;;;1.88;;
31760;SDS011;18335;51.486;7.562;2023-10-31T02:57:27;6.47;;;2.13;;
31760;SDS011;18335;51.486;7.562;2023-10-31T02:59:54;3.45;;;1.73;;
31760;SDS011;18335;51.486;7.562;2023-10-31T03:02:20;3.05;;;1.60;;
31760;SDS011;18335;51.486;7.562;2023-10-31T03:04:47;4.22;;;1.52;;
31760;SDS011;18335;51.486;7.562;2023-10-31T03:07:14;4.47;;;1.77;;
31760;SDS011;18335;51.486;7.562;2023-10-31T03:09:41;3.13;;;1.30;;
31760;SDS011;18335;51.486;7.562;2023-10-31T03:12:07;3.65;;;1.50;;
31760;SDS011;18335;51.486;7.562;2023-10-31T03:14:36;3.20;;;1.30;;
31760;SDS011;18335;51.486;7.562;2023-10-31T03:17:03;4.70;;;1.60;;
31760;SDS011;18335;51.486;7.562;2023-10-31T03:19:32;3.10;;;1.10;;
31760;SDS011;18335;51.486;7.562;2023-10-31T03:21:58;4.18;;;1.27;;
31760;SDS011;18335;51.486;7.562;2023-10-31T03:24:25;3.47;;;1.10;;
31760;SDS011;18335;51.486;7.562;2023-10-31T03:26:52;5.47;;;1.65;;
31760;SDS011;18335;51.486;7.562;2023-10-31T03:29:19;4.57;;;1.65;;
31760;SDS011;18335;51.486;7.562;2023-10-31T03:31:47;4.63;;;2.10;;
31760;SDS011;18335;51.486;7.562;2023-10-31T03:34:13;6.05;;;1.83;;
31760;SDS011;18335;51.486;7.562;2023-10-31T03:36:40;9.15;;;2.95;;
31760;SDS011;18335;51.486;7.562;2023-10-31T03:39:08;5.28;;;2.65;;
31760;SDS011;18335;51.486;7.562;2023-10-31T03:41:35;6.00;;;3.08;;
31760;SDS011;18335;51.486;7.562;2023-10-31T03:44:02;6.57;;;3.33;;
31760;SDS011;18335;51.486;7.562;2023-10-31T03:46:28;9.68;;;3.35;;
31760;SDS011;18335;51.486;7.562;2023-10-31T03:48:56;12.77;;;5.57;;
31760;SDS011;18335;51.486;7.562;2023-10-31T03:51:22;6.60;;;3.63;;
31760;SDS011;18335;51.486;7.562;2023-10-31T03:53:49;8.15;;;3.78;;
31760;SDS011;18335;51.486;7.562;2023-10-31T03:56:15;7.97;;;3.72;;
31760;SDS011;18335;51.486;7.562;2023-10-31T03:58:42;8.25;;;4.10;;
31760;SDS011;18335;51.486;7.562;2023-10-31T04:01:08;7.07;;;3.92;;
31760;SDS011;18335;51.486;7.562;2023-10-31T04:03:35;11.43;;;4.63;;
31760;SDS011;18335;51.486;7.562;2023-10-31T04:06:04;11.82;;;5.05;;
31760;SDS011;18335;51.486;7.562;2023-10-31T04:08:31;11.20;;;4.47;;
31760;SDS011;18335;51.486;7.562;2023-10-31T04:10:57;10.70;;;5.25;;
31760;SDS011;18335;51.486;7.562;2023-10-31T04:13:24;8.85;;;4.43;;
31760;SDS011;18335;51.486;7.562;2023-10-31T04:15:51;9.85;;;4.00;;
31760;SDS011;18335;51.486;7.562;2023-10-31T04:18:18;8.82;;;3.67;;
31760;SDS011;18335;51.486;7.562;2023-10-31T04:20:45;11.32;;;4.18;;
31760;SDS011;18335;51.486;7.562;2023-10-31T04:23:13;8.10;;;3.78;;
31760;SDS011;18335;51.486;7.562;2023-10-31T04:25:40;6.85;;;3.38;;
31760;SDS011;18335;51.486;7.562;2023-10-31T04:28:06;9.63;;;3.72;;
31760;SDS011;18335;51.486;7.562;2023-10-31T04:30:33;6.85;;;3.30;;
31760;SDS011;18335;51.486;7.562;2023-10-31T04:33:00;6.25;;;3.22;;
31760;SDS011;18335;51.486;7.562;2023-10-31T04:35:27;9.85;;;4.18;;
31760;SDS011;18335;51.486;7.562;2023-10-31T04:37:54;9.32;;;3.83;;
31760;SDS011;18335;51.486;7.562;2023-10-31T04:40:23;8.95;;;3.60;;
31760;SDS011;18335;51.486;7.562;2023-10-31T04:42:50;8.82;;;3.85;;
31760;SDS011;18335;51.486;7.562;2023-10-31T04:45:16;7.93;;;3.70;;
31760;SDS011;18335;51.486;7.562;2023-10-31T04:47:43;8.50;;;3.97;;
31760;SDS011;18335;51.486;7.562;2023-10-31T04:50:10;8.73;;;4.05;;
31760;SDS011;18335;51.486;7.562;2023-10-31T04:52:37;9.55;;;5.03;;
31760;SDS011;18335;51.486;7.562;2023-10-31T04:55:04;9.40;;;4.28;;
31760;SDS011;18335;51.486;7.562;2023-10-31T04:57:32;9.68;;;3.63;;
31760;SDS011;18335;51.486;7.562;2023-10-31T04:59:59;8.57;;;4.35;;
31760;SDS011;18335;51.486;7.562;2023-10-31T05:02:26;8.95;;;4.30;;
31760;SDS011;18335;51.486;7.562;2023-10-31T05:04:53;8.13;;;4.15;;
31760;SDS011;18335;51.486;7.562;2023-10-31T05:07:20;7.70;;;3.55;;
31760;SDS011;18335;51.486;7.562;2023-10-31T05:09:47;8.98;;;3.40;;
31760;SDS011;18335;51.486;7.562;2023-10-31T05:12:13;13.70;;;6.40;;
31760;SDS011;18335;51.486;7.562;2023-10-31T05:14:42;9.02;;;4.30;;
31760;SDS011;18335;51.486;7.562;2023-10-31T05:17:09;6.68;;;3.05;;
31760;SDS011;18335;51.486;7.562;2023-10-31T05:19:36;7.00;;;3.60;;
31760;SDS011;18335;51.486;7.562;2023-10-31T05:22:02;6.70;;;3.35;;
31760;SDS011;18335;51.486;7.562;2023-10-31T05:24:29;7.15;;;3.28;;
31760;SDS011;18335;51.486;7.562;2023-10-31T05:26:57;7.55;;;3.00;;
31760;SDS011;18335;51.486;7.562;2023-10-31T05:29:24;6.65;;;3.38;;
31760;SDS011;18335;51.486;7.562;2023-10-31T05:31:52;7.28;;;3.88;;
31760;SDS011;18335;51.486;7.562;2023-10-31T05:34:19;6.25;;;2.92;;
31760;SDS011;18335;51.486;7.562;2023-10-31T05:36:46;6.47;;;2.90;;
31760;SDS011;18335;51.486;7.562;2023-10-31T05:39:12;7.80;;;3.20;;
31760;SDS011;18335;51.486;7.562;2023-10-31T05:41:40;6.28;;;3.00;;
31760;SDS011;18335;51.486;7.562;2023-10-31T05:44:07;5.00;;;2.53;;
31760;SDS011;18335;51.486;7.562;2023-10-31T05:46:37;7.15;;;3.05;;
31760;SDS011;18335;51.486;7.562;2023-10-31T05:49:05;8.48;;;3.65;;
31760;SDS011;18335;51.486;7.562;2023-10-31T05:51:32;7.75;;;3.25;;
31760;SDS011;18335;51.486;7.562;2023-10-31T05:54:00;7.55;;;3.70;;
31760;SDS011;18335;51.486;7.562;2023-10-31T05:56:27;9.43;;;3.92;;
31760;SDS011;18335;51.486;7.562;2023-10-31T05:58:54;7.18;;;3.72;;
31760;SDS011;18335;51.486;7.562;2023-10-31T06:01:21;9.13;;;4.05;;
31760;SDS011;18335;51.486;7.562;2023-10-31T06:03:47;9.95;;;4.13;;
31760;SDS011;18335;51.486;7.562;2023-10-31T06:06:15;10.05;;;4.80;;
31760;SDS011;18335;51.486;7.562;2023-10-31T06:08:42;10.93;;;4.53;;
31760;SDS011;18335;51.486;7.562;2023-10-31T06:11:09;9.40;;;4.40;;
31760;SDS011;18335;51.486;7.562;2023-10-31T06:13:37;7.22;;;3.50;;
31760;SDS011;18335;51.486;7.562;2023-10-31T06:16:04;8.45;;;4.55;;
31760;SDS011;18335;51.486;7.562;2023-10-31T06:18:32;8.30;;;3.97;;
31760;SDS011;18335;51.486;7.562;2023-10-31T06:20:59;8.73;;;4.55;;
31760;SDS011;18335;51.486;7.562;2023-10-31T06:23:28;11.68;;;5.25;;
31760;SDS011;18335;51.486;7.562;2023-10-31T06:25:54;10.60;;;5.47;;
31760;SDS011;18335;51.486;7.562;2023-10-31T06:28:21;15.15;;;8.10;;
31760;SDS011;18335;51.486;7.562;2023-10-31T06:30:49;11.50;;;6.00;;
31760;SDS011;18335;51.486;7.562;2023-10-31T06:33:16;12.18;;;6.88;;
31760;SDS011;18335;51.486;7.562;2023-10-31T06:35:42;12.88;;;7.43;;
31760;SDS011;18335;51.486;7.562;2023-10-31T06:38:09;12.25;;;7.32;;
31760;SDS011;18335;51.486;7.562;2023-10-31T06:40:37;11.60;;;7.35;;
31760;SDS011;18335;51.486;7.562;2023-10-31T06:43:04;14.43;;;7.72;;
31760;SDS011;18335;51.486;7.562;2023-10-31T06:45:31;16.25;;;8.02;;
31760;SDS011;18335;51.486;7.562;2023-10-31T06:47:59;13.07;;;7.75;;
31760;SDS011;18335;51.486;7.562;2023-10-31T06:50:25;13.50;;;8.27;;
31760;SDS011;18335;51.486;7.562;2023-10-31T06:52:52;14.00;;;8.15;;
31760;SDS011;18335;51.486;7.562;2023-10-31T06:55:19;14.63;;;7.63;;
31760;SDS011;18335;51.486;7.562;2023-10-31T06:57:47;14.00;;;8.00;;
31760;SDS011;18335;51.486;7.562;2023-10-31T07:00:14;16.17;;;9.02;;
31760;SDS011;18335;51.486;7.562;2023-10-31T07:02:41;12.98;;;8.05;;
31760;SDS011;18335;51.486;7.562;2023-10-31T07:05:08;15.63;;;8.82;;
31760;SDS011;18335;51.486;7.562;2023-10-31T07:07:35;14.55;;;9.45;;
31760;SDS011;18335;51.486;7.562;2023-10-31T07:10:02;13.85;;;8.77;;
31760;SDS011;18335;51.486;7.562;2023-10-31T07:12:30;14.57;;;9.10;;
31760;SDS011;18335;51.486;7.562;2023-10-31T07:14:58;14.02;;;9.30;;
31760;SDS011;18335;51.486;7.562;2023-10-31T07:17:24;14.05;;;8.68;;
31760;SDS011;18335;51.486;7.562;2023-10-31T07:19:51;17.75;;;9.07;;
31760;SDS011;18335;51.486;7.562;2023-10-31T07:22:18;15.48;;;8.68;;
31760;SDS011;18335;51.486;7.562;2023-10-31T07:24:45;14.90;;;9.57;;
31760;SDS011;18335;51.486;7.562;2023-10-31T07:27:11;14.63;;;8.88;;
31760;SDS011;18335;51.486;7.562;2023-10-31T07:29:39;14.48;;;8.35;;
31760;SDS011;18335;51.486;7.562;2023-10-31T07:32:07;14.00;;;8.07;;
31760;SDS011;18335;51.486;7.562;2023-10-31T07:34:34;17.35;;;7.90;;
31760;SDS011;18335;51.486;7.562;2023-10-31T07:37:01;11.88;;;7.28;;
31760;SDS011;18335;51.486;7.562;2023-10-31T07:39:28;14.35;;;7.90;;
31760;SDS011;18335;51.486;7.562;2023-10-31T07:41:54;12.05;;;7.38;;
31760;SDS011;18335;51.486;7.562;2023-10-31T07:44:21;12.30;;;6.80;;
31760;SDS011;18335;51.486;7.562;2023-10-31T07:46:48;11.95;;;6.88;;
31760;SDS011;18335;51.486;7.562;2023-10-31T07:49:16;11.93;;;6.90;;
31760;SDS011;18335;51.486;7.562;2023-10-31T07:51:43;11.85;;;7.15;;
31760;SDS011;18335;51.486;7.562;2023-10-31T07:54:11;11.63;;;7.10;;
31760;SDS011;18335;51.486;7.562;2023-10-31T07:56:37;13.13;;;7.18;;
31760;SDS011;18335;51.486;7.562;2023-10-31T07:59:05;12.35;;;6.18;;
31760;SDS011;18335;51.486;7.562;2023-10-31T08:01:33;11.77;;;6.93;;
31760;SDS011;18335;51.486;7.562;2023-10-31T08:04:00;17.02;;;7.70;;
31760;SDS011;18335;51.486;7.562;2023-10-31T08:06:28;22.48;;;7.55;;
31760;SDS011;18335;51.486;7.562;2023-10-31T08:08:55;13.75;;;6.55;;
31760;SDS011;18335;51.486;7.562;2023-10-31T08:11:22;10.50;;;5.43;;
31760;SDS011;18335;51.486;7.562;2023-10-31T08:13:48;9.10;;;5.60;;
31760;SDS011;18335;51.486;7.562;2023-10-31T08:16:16;10.45;;;5.35;;
31760;SDS011;18335;51.486;7.562;2023-10-31T08:18:43;8.13;;;5.20;;
31760;SDS011;18335;51.486;7.562;2023-10-31T08:21:10;8.95;;;5.22;;
31760;SDS011;18335;51.486;7.562;2023-10-31T08:23:39;8.95;;;5.20;;
31760;SDS011;18335;51.486;7.562;2023-10-31T08:26:05;10.13;;;5.70;;
31760;SDS011;18335;51.486;7.562;2023-10-31T08:28:32;8.02;;;4.97;;
31760;SDS011;18335;51.486;7.562;2023-10-31T08:30:59;10.38;;;5.90;;
31760;SDS011;18335;51.486;7.562;2023-10-31T08:33:26;9.55;;;5.28;;
31760;SDS011;18335;51.486;7.562;2023-10-31T08:35:52;11.60;;;5.68;;
31760;SDS011;18335;51.486;7.562;2023-10-31T08:38:19;13.10;;;5.72;;
31760;SDS011;18335;51.486;7.562;2023-10-31T08:40:47;10.07;;;5.93;;
31760;SDS011;18335;51.486;7.562;2023-10-31T08:43:14;15.38;;;6.82;;
31760;SDS011;18335;51.486;7.562;2023-10-31T08:45:41;11.43;;;6.53;;
31760;SDS011;18335;51.486;7.562;2023-10-31T08:48:07;12.32;;;6.60;;
31760;SDS011;18335;51.486;7.562;2023-10-31T08:50:34;11.55;;;7.72;;
31760;SDS011;18335;51.486;7.562;2023-10-31T08:53:01;14.60;;;7.78;;
31760;SDS011;18335;51.486;7.562;2023-10-31T08:55:27;11.55;;;6.70;;
31760;SDS011;18335;51.486;7.562;2023-10-31T08:57:55;12.15;;;6.45;;
31760;SDS011;18335;51.486;7.562;2023-10-31T09:00:22;12.55;;;6.60;;
31760;SDS011;18335;51.486;7.562;2023-10-31T09:02:49;11.15;;;6.07;;
31760;SDS011;18335;51.486;7.562;2023-10-31T09:05:16;10.85;;;5.78;;
31760;SDS011;18335;51.486;7.562;2023-10-31T09:07:43;10.98;;;6.70;;
31760;SDS011;18335;51.486;7.562;2023-10-31T09:10:11;10.27;;;7.13;;
31760;SDS011;18335;51.486;7.562;2023-10-31T09:12:38;9.18;;;5.43;;
31760;SDS011;18335;51.486;7.562;2023-10-31T09:15:07;9.32;;;5.18;;
31760;SDS011;18335;51.486;7.562;2023-10-31T09:17:34;9.38;;;5.22;;
31760;SDS011;18335;51.486;7.562;2023-10-31T09:20:01;9.05;;;4.93;;
31760;SDS011;18335;51.486;7.562;2023-10-31T09:22:28;8.80;;;4.43;;
31760;SDS011;18335;51.486;7.562;2023-10-31T09:24:55;9.43;;;5.32;;
31760;SDS011;18335;51.486;7.562;2023-10-31T09:27:22;8.35;;;4.93;;
31760;SDS011;18335;51.486;7.562;2023-10-31T09:29:48;8.23;;;4.88;;
31760;SDS011;18335;51.486;7.562;2023-10-31T09:32:17;8.38;;;4.70;;
31760;SDS011;18335;51.486;7.562;2023-10-31T09:34:44;8.15;;;4.38;;
31760;SDS011;18335;51.486;7.562;2023-10-31T09:37:11;6.78;;;4.57;;
31760;SDS011;18335;51.486;7.562;2023-10-31T09:39:38;9.25;;;4.45;;
31760;SDS011;18335;51.486;7.562;2023-10-31T09:42:05;9.77;;;5.07;;
31760;SDS011;18335;51.486;7.562;2023-10-31T09:44:33;11.00;;;5.57;;
31760;SDS011;18335;51.486;7.562;2023-10-31T09:47:00;7.72;;;4.63;;
31760;SDS011;18335;51.486;7.562;2023-10-31T09:49:28;8.73;;;4.28;;
31760;SDS011;18335;51.486;7.562;2023-10-31T09:51:56;9.93;;;4.97;;
31760;SDS011;18335;51.486;7.562;2023-10-31T09:54:24;7.68;;;4.10;;
31760;SDS011;18335;51.486;7.562;2023-10-31T09:56:52;5.97;;;3.65;;
31760;SDS011;18335;51.486;7.562;2023-10-31T09:59:19;6.55;;;3.72;;
31760;SDS011;18335;51.486;7.562;2023-10-31T10:01:45;8.48;;;4.28;;
31760;SDS011;18335;51.486;7.562;2023-10-31T10:04:12;8.13;;;4.05;;
31760;SDS011;18335;51.486;7.562;2023-10-31T10:06:48;6.68;;;3.67;;
31760;SDS011;18335;51.486;7.562;2023-10-31T10:09:16;7.00;;;3.50;;
31760;SDS011;18335;51.486;7.562;2023-10-31T10:11:43;8.52;;;4.05;;
31760;SDS011;18335;51.486;7.562;2023-10-31T10:14:11;7.88;;;4.07;;
31760;SDS011;18335;51.486;7.562;2023-10-31T10:16:38;8.60;;;3.30;;
31760;SDS011;18335;51.486;7.562;2023-10-31T10:19:14;8.30;;;4.32;;
31760;SDS011;18335;51.486;7.562;2023-10-31T10:21:47;8.02;;;3.70;;
31760;SDS011;18335;51.486;7.562;2023-10-31T10:24:15;9.00;;;3.83;;
31760;SDS011;18335;51.486;7.562;2023-10-31T10:26:41;10.35;;;3.97;;
31760;SDS011;18335;51.486;7.562;2023-10-31T10:29:08;9.75;;;4.40;;
31760;SDS011;18335;51.486;7.562;2023-10-31T10:31:35;6.00;;;2.88;;
31760;SDS011;18335;51.486;7.562;2023-10-31T10:34:02;7.25;;;3.42;;
31760;SDS011;18335;51.486;7.562;2023-10-31T10:36:28;9.05;;;3.90;;
31760;SDS011;18335;51.486;7.562;2023-10-31T10:38:59;9.05;;;3.95;;
31760;SDS011;18335;51.486;7.562;2023-10-31T10:41:27;8.77;;;4.30;;
31760;SDS011;18335;51.486;7.562;2023-10-31T10:43:55;10.85;;;4.55;;
31760;SDS011;18335;51.486;7.562;2023-10-31T10:46:24;8.80;;;3.80;;
31760;SDS011;18335;51.486;7.562;2023-10-31T10:48:53;8.82;;;3.45;;
31760;SDS011;18335;51.486;7.562;2023-10-31T10:51:24;7.00;;;3.30;;
31760;SDS011;18335;51.486;7.562;2023-10-31T10:53:57;8.82;;;3.83;;
31760;SDS011;18335;51.486;7.562;2023-10-31T10:56:30;11.88;;;4.55;;
31760;SDS011;18335;51.486;7.562;2023-10-31T10:59:03;8.10;;;3.33;;
31760;SDS011;18335;51.486;7.562;2023-10-31T11:01:35;6.75;;;3.35;;
31760;SDS011;18335;51.486;7.562;2023-10-31T11:04:03;9.63;;;3.90;;
31760;SDS011;18335;51.486;7.562;2023-10-31T11:06:32;8.80;;;4.28;;
31760;SDS011;18335;51.486;7.562;2023-10-31T11:09:00;11.40;;;4.72;;
31760;SDS011;18335;51.486;7.562;2023-10-31T11:11:27;9.63;;;4.20;;
31760;SDS011;18335;51.486;7.562;2023-10-31T11:13:55;9.63;;;4.10;;
31760;SDS011;18335;51.486;7.562;2023-10-31T11:16:26;13.15;;;3.72;;
31760;SDS011;18335;51.486;7.562;2023-10-31T11:18:59;10.18;;;4.03;;
31760;SDS011;18335;51.486;7.562;2023-10-31T11:21:28;8.80;;;4.03;;
31760;SDS011;18335;51.486;7.562;2023-10-31T11:23:57;10.25;;;3.80;;
31760;SDS011;18335;51.486;7.562;2023-10-31T11:26:25;14.38;;;4.45;;
31760;SDS011;18335;51.486;7.562;2023-10-31T11:28:52;12.48;;;4.28;;
31760;SDS011;18335;51.486;7.562;2023-10-31T11:31:21;11.45;;;5.20;;
31760;SDS011;18335;51.486;7.562;2023-10-31T11:33:47;9.27;;;4.70;;
31760;SDS011;18335;51.486;7.562;2023-10-31T11:36:14;9.90;;;4.38;;
31760;SDS011;18335;51.486;7.562;2023-10-31T11:38:41;12.65;;;3.53;;
31760;SDS011;18335;51.486;7.562;2023-10-31T11:41:09;12.70;;;4.10;;
31760;SDS011;18335;51.486;7.562;2023-10-31T11:43:49;9.15;;;4.25;;
31760;SDS011;18335;51.486;7.562;2023-10-31T11:46:21;12.57;;;4.10;;
31760;SDS011;18335;51.486;7.562;2023-10-31T11:48:50;10.23;;;3.95;;
31760;SDS011;18335;51.486;7.562;2023-10-31T11:51:18;9.77;;;4.00;;
31760;SDS011;18335;51.486;7.562;2023-10-31T11:53:45;11.52;;;4.22;;
31760;SDS011;18335;51.486;7.562;2023-10-31T11:56:18;10.13;;;3.60;;
31760;SDS011;18335;51.486;7.562;2023-10-31T11:58:54;10.70;;;3.80;;
31760;SDS011;18335;51.486;7.562;2023-10-31T12:01:22;10.48;;;4.10;;
31760;SDS011;18335;51.486;7.562;2023-10-31T12:03:49;8.43;;;3.67;;
31760;SDS011;18335;51.486;7.562;2023-10-31T12:06:17;11.10;;;3.83;;
31760;SDS011;18335;51.486;7.562;2023-10-31T12:08:45;7.95;;;3.47;;
31760;SDS011;18335;51.486;7.562;2023-10-31T12:11:13;11.25;;;4.03;;
31760;SDS011;18335;51.486;7.562;2023-10-31T12:13:51;8.40;;;3.38;;
31760;SDS011;18335;51.486;7.562;2023-10-31T12:16:22;11.10;;;3.30;;
31760;SDS011;18335;51.486;7.562;2023-10-31T12:18:55;10.25;;;3.05;;
31760;SDS011;18335;51.486;7.562;2023-10-31T12:21:38;10.30;;;3.17;;
31760;SDS011;18335;51.486;7.562;2023-10-31T12:24:08;9.55;;;3.15;;
31760;SDS011;18335;51.486;7.562;2023-10-31T12:26:35;7.07;;;3.08;;
31760;SDS011;18335;51.486;7.562;2023-10-31T12:29:06;8.27;;;3.20;;
31760;SDS011;18335;51.486;7.562;2023-10-31T12:31:38;11.15;;;2.78;;
31760;SDS011;18335;51.486;7.562;2023-10-31T12:34:05;10.60;;;2.40;;
31760;SDS011;18335;51.486;7.562;2023-10-31T12:36:32;7.90;;;2.42;;
31760;SDS011;18335;51.486;7.562;2023-10-31T12:38:59;10.15;;;2.75;;
31760;SDS011;18335;51.486;7.562;2023-10-31T12:41:27;8.65;;;2.13;;
31760;SDS011;18335;51.486;7.562;2023-10-31T12:43:54;13.18;;;2.65;;
31760;SDS011;18335;51.486;7.562;2023-10-31T12:46:24;10.38;;;2.65;;
31760;SDS011;18335;51.486;7.562;2023-10-31T12:48:53;7.32;;;2.45;;
31760;SDS011;18335;51.486;7.562;2023-10-31T12:51:20;9.43;;;2.15;;
31760;SDS011;18335;51.486;7.562;2023-10-31T12:53:48;9.68;;;2.13;;
31760;SDS011;18335;51.486;7.562;2023-10-31T12:59:06;7.68;;;2.08;;
31760;SDS011;18335;51.486;7.562;2023-10-31T13:01:34;5.53;;;1.77;;
31760;SDS011;18335;51.486;7.562;2023-10-31T13:04:03;6.53;;;1.63;;
31760;SDS011;18335;51.486;7.562;2023-10-31T13:06:31;4.75;;;1.58;;
31760;SDS011;18335;51.486;7.562;2023-10-31T13:08:58;8.15;;;1.83;;
31760;SDS011;18335;51.486;7.562;2023-10-31T13:11:28;9.82;;;2.88;;
31760;SDS011;18335;51.486;7.562;2023-10-31T13:13:56;6.63;;;1.75;;
31760;SDS011;18335;51.486;7.562;2023-10-31T13:16:23;4.63;;;1.80;;
31760;SDS011;18335;51.486;7.562;2023-10-31T13:18:54;4.82;;;1.40;;
31760;SDS011;18335;51.486;7.562;2023-10-31T13:21:22;11.32;;;1.88;;
31760;SDS011;18335;51.486;7.562;2023-10-31T13:23:49;6.80;;;1.95;;
31760;SDS011;18335;51.486;7.562;2023-10-31T13:26:16;4.45;;;1.50;;
31760;SDS011;18335;51.486;7.562;2023-10-31T13:28:42;7.40;;;1.60;;
31760;SDS011;18335;51.486;7.562;2023-10-31T13:31:09;7.00;;;1.48;;
31760;SDS011;18335;51.486;7.562;2023-10-31T13:33:36;8.82;;;2.42;;
31760;SDS011;18335;51.486;7.562;2023-10-31T13:36:03;6.07;;;1.75;;
31760;SDS011;18335;51.486;7.562;2023-10-31T13:38:32;6.85;;;1.70;;
31760;SDS011;18335;51.486;7.562;2023-10-31T13:41:01;6.65;;;1.80;;
31760;SDS011;18335;51.486;7.562;2023-10-31T13:43:27;9.13;;;2.85;;
31760;SDS011;18335;51.486;7.562;2023-10-31T13:45:54;4.47;;;1.58;;
31760;SDS011;18335;51.486;7.562;2023-10-31T13:48:21;3.13;;;1.27;;
31760;SDS011;18335;51.486;7.562;2023-10-31T13:50:48;9.77;;;1.77;;
31760;SDS011;18335;51.486;7.562;2023-10-31T13:53:15;6.70;;;2.95;;
31760;SDS011;18335;51.486;7.562;2023-10-31T13:55:43;4.97;;;1.60;;
31760;SDS011;18335;51.486;7.562;2023-10-31T13:58:10;3.60;;;1.38;;
31760;SDS011;18335;51.486;7.562;2023-10-31T14:00:37;4.13;;;1.50;;
31760;SDS011;18335;51.486;7.562;2023-10-31T14:03:03;9.55;;;1.98;;
31760;SDS011;18335;51.486;7.562;2023-10-31T14:05:30;4.55;;;1.38;;
31760;SDS011;18335;51.486;7.562;2023-10-31T14:07:57;4.00;;;1.65;;
31760;SDS011;18335;51.486;7.562;2023-10-31T14:10:25;3.47;;;1.33;;
31760;SDS011;18335;51.486;7.562;2023-10-31T14:12:53;4.45;;;1.75;;
31760;SDS011;18335;51.486;7.562;2023-10-31T14:15:21;5.80;;;1.30;;
31760;SDS011;18335;51.486;7.562;2023-10-31T14:17:48;7.07;;;1.40;;
31760;SDS011;18335;51.486;7.562;2023-10-31T14:20:15;4.68;;;1.58;;
31760;SDS011;18335;51.486;7.562;2023-10-31T14:22:46;6.88;;;1.92;;
31760;SDS011;18335;51.486;7.562;2023-10-31T14:25:13;3.45;;;1.15;;
31760;SDS011;18335;51.486;7.562;2023-10-31T14:27:40;5.68;;;1.52;;
31760;SDS011;18335;51.486;7.562;2023-10-31T14:30:09;3.40;;;1.70;;
31760;SDS011;18335;51.486;7.562;2023-10-31T14:32:36;4.03;;;1.35;;
31760;SDS011;18335;51.486;7.562;2023-10-31T14:35:03;4.10;;;1.05;;
31760;SDS011;18335;51.486;7.562;2023-10-31T14:37:31;3.25;;;1.30;;
31760;SDS011;18335;51.486;7.562;2023-10-31T14:39:58;9.23;;;1.67;;
31760;SDS011;18335;51.486;7.562;2023-10-31T14:42:25;7.97;;;1.55;;
31760;SDS011;18335;51.486;7.562;2023-10-31T14:44:51;5.22;;;1.40;;
31760;SDS011;18335;51.486;7.562;2023-10-31T14:47:23;4.05;;;1.60;;